createdAt,value
2017-12-31T00:00:14.671Z,4.60
2017-12-31T00:02:42.251Z,0.63
2017-12-31T00:05:10.575Z,4.60
2017-12-31T00:07:38.120Z,8.70
2017-12-31T00:10:05.707Z,4.57
2017-12-31T00:12:33.256Z,9.40
2017-12-31T00:15:00.800Z,7.93
2017-12-31T00:17:29.116Z,2.77
2017-12-31T00:19:56.693Z,1.77
2017-12-31T00:22:24.279Z,1.00
2017-12-31T00:24:51.839Z,2.83
2017-12-31T00:27:20.179Z,2.77
2017-12-31T00:29:47.753Z,1.30
2017-12-31T00:32:15.331Z,2.30
2017-12-31T00:34:42.891Z,10.63
2017-12-31T00:37:10.493Z,3.37
2017-12-31T00:39:39.664Z,1.90
2017-12-31T00:42:07.307Z,2.00
2017-12-31T00:44:35.615Z,3.93
2017-12-31T00:47:03.931Z,2.00
2017-12-31T00:49:31.539Z,2.97
2017-12-31T00:51:59.089Z,0.87
2017-12-31T00:54:27.535Z,0.80
2017-12-31T00:56:55.077Z,3.07
2017-12-31T00:59:23.395Z,2.90
2017-12-31T01:01:50.934Z,0.67
2017-12-31T01:04:18.490Z,1.23
2017-12-31T01:06:46.027Z,1.33
2017-12-31T01:09:14.349Z,1.67
2017-12-31T01:11:41.893Z,1.50
2017-12-31T01:14:09.449Z,0.97
2017-12-31T01:16:37.000Z,3.33
2017-12-31T01:19:04.567Z,1.67
2017-12-31T01:21:32.895Z,1.43
2017-12-31T01:24:00.454Z,1.07
2017-12-31T01:26:28.033Z,1.33
2017-12-31T01:28:56.359Z,1.57
2017-12-31T01:31:23.901Z,1.90
2017-12-31T01:33:51.434Z,0.63
2017-12-31T01:36:18.996Z,0.70
2017-12-31T01:38:46.683Z,1.50
2017-12-31T01:41:14.232Z,1.33
2017-12-31T01:43:41.774Z,5.20
2017-12-31T01:46:09.330Z,7.30
2017-12-31T01:48:36.876Z,1.30
2017-12-31T01:51:04.433Z,2.30
2017-12-31T01:53:31.968Z,3.07
2017-12-31T01:56:00.292Z,2.50
2017-12-31T01:58:27.864Z,4.70
2017-12-31T02:00:56.181Z,4.33
2017-12-31T02:03:23.715Z,1.20
2017-12-31T02:05:51.267Z,1.60
2017-12-31T02:08:18.808Z,4.57
2017-12-31T02:10:47.107Z,6.10
2017-12-31T02:13:15.437Z,5.13
2017-12-31T02:15:42.997Z,3.27
2017-12-31T02:18:11.311Z,6.93
2017-12-31T02:20:38.848Z,2.37
2017-12-31T02:23:06.395Z,2.83
2017-12-31T02:25:33.939Z,3.33
2017-12-31T02:28:01.491Z,7.70
2017-12-31T02:30:29.032Z,4.60
2017-12-31T02:32:56.586Z,7.00
2017-12-31T02:35:24.124Z,4.40
2017-12-31T02:37:51.686Z,3.57
2017-12-31T02:40:19.224Z,3.10
2017-12-31T02:42:46.787Z,5.03
2017-12-31T02:45:14.332Z,4.23
2017-12-31T02:47:41.868Z,6.80
2017-12-31T02:50:09.418Z,3.40
2017-12-31T02:52:36.956Z,4.30
2017-12-31T02:55:04.507Z,7.70
2017-12-31T02:57:32.044Z,9.50
2017-12-31T03:00:00.370Z,6.37
2017-12-31T03:02:27.903Z,8.07
2017-12-31T03:04:55.484Z,9.47
2017-12-31T03:07:23.021Z,3.43
2017-12-31T03:09:50.575Z,7.90
2017-12-31T03:12:18.880Z,7.73
2017-12-31T03:14:47.195Z,8.17
2017-12-31T03:17:14.732Z,5.60
2017-12-31T03:19:42.289Z,11.57
2017-12-31T03:22:09.833Z,7.10
2017-12-31T03:24:37.400Z,8.53
2017-12-31T03:27:04.940Z,12.13
2017-12-31T03:29:32.493Z,8.47
2017-12-31T03:32:00.038Z,7.00
2017-12-31T03:34:27.617Z,13.77
2017-12-31T03:36:55.152Z,3.67
2017-12-31T03:39:22.718Z,11.40
2017-12-31T03:41:51.049Z,6.90
2017-12-31T03:44:18.588Z,6.73
2017-12-31T03:46:46.914Z,12.27
2017-12-31T03:49:14.452Z,7.73
2017-12-31T03:51:42.007Z,10.97
2017-12-31T03:54:09.550Z,11.43
2017-12-31T03:56:37.871Z,9.57
2017-12-31T03:59:05.413Z,16.97
2017-12-31T04:01:32.969Z,13.43
2017-12-31T04:04:00.516Z,11.70
2017-12-31T04:06:28.838Z,13.63
2017-12-31T04:08:56.770Z,17.97
2017-12-31T04:11:24.351Z,8.57
2017-12-31T04:13:51.887Z,10.20
2017-12-31T04:16:19.425Z,14.13
2017-12-31T04:18:46.980Z,18.77
2017-12-31T04:21:14.535Z,10.23
2017-12-31T04:23:42.091Z,15.87
2017-12-31T04:26:09.629Z,8.70
2017-12-31T04:28:37.187Z,11.20
2017-12-31T04:31:04.752Z,12.37
2017-12-31T04:33:33.072Z,13.80
2017-12-31T04:36:00.617Z,18.47
2017-12-31T04:38:28.162Z,6.50
2017-12-31T04:40:55.701Z,13.53
2017-12-31T04:43:24.020Z,5.67
2017-12-31T04:45:52.326Z,6.70
2017-12-31T04:48:19.895Z,19.00
2017-12-31T04:50:48.199Z,35.70
2017-12-31T04:53:16.529Z,18.10
2017-12-31T04:55:44.071Z,17.03
2017-12-31T04:58:11.603Z,9.13
2017-12-31T05:00:39.164Z,12.10
2017-12-31T05:03:06.697Z,8.60
2017-12-31T05:05:34.261Z,11.50
2017-12-31T05:08:01.808Z,11.73
2017-12-31T05:10:29.364Z,18.40
2017-12-31T05:12:56.901Z,27.93
2017-12-31T05:15:24.465Z,15.37
2017-12-31T05:17:52.005Z,19.43
2017-12-31T05:20:19.564Z,16.33
2017-12-31T05:22:47.104Z,20.93
2017-12-31T05:25:15.444Z,24.97
2017-12-31T05:27:42.988Z,13.60
2017-12-31T05:30:11.295Z,35.30
2017-12-31T05:32:38.857Z,15.90
2017-12-31T05:35:06.393Z,15.97
2017-12-31T05:37:33.959Z,13.17
2017-12-31T05:40:01.496Z,11.77
2017-12-31T05:42:29.067Z,23.70
2017-12-31T05:44:56.600Z,11.20
2017-12-31T05:47:24.920Z,17.63
2017-12-31T05:49:52.459Z,24.00
2017-12-31T05:52:20.025Z,7.57
2017-12-31T05:54:47.573Z,25.07
2017-12-31T05:57:15.137Z,24.07
2017-12-31T05:59:42.682Z,15.57
2017-12-31T06:02:10.243Z,17.33
2017-12-31T06:04:37.807Z,37.33
2017-12-31T06:07:05.389Z,20.53
2017-12-31T06:09:32.956Z,20.10
2017-12-31T06:12:00.495Z,26.80
2017-12-31T06:14:28.057Z,26.30
2017-12-31T06:16:55.613Z,17.57
2017-12-31T06:19:23.179Z,23.63
2017-12-31T06:21:51.479Z,19.97
2017-12-31T06:24:19.795Z,22.90
2017-12-31T06:26:48.094Z,15.53
2017-12-31T06:29:16.415Z,14.83
2017-12-31T06:31:43.961Z,33.07
2017-12-31T06:34:12.288Z,17.90
2017-12-31T06:36:39.829Z,24.53
2017-12-31T06:39:08.183Z,24.00
2017-12-31T06:41:35.733Z,24.53
2017-12-31T06:44:04.072Z,29.67
2017-12-31T06:46:31.607Z,24.67
2017-12-31T06:48:59.148Z,29.73
2017-12-31T06:51:26.702Z,32.30
2017-12-31T06:53:55.027Z,30.67
2017-12-31T06:56:22.592Z,31.57
2017-12-31T06:58:51.003Z,27.17
2017-12-31T07:01:19.319Z,29.67
2017-12-31T07:03:46.871Z,27.40
2017-12-31T07:06:15.197Z,27.87
2017-12-31T07:08:42.730Z,24.30
2017-12-31T07:11:10.292Z,22.70
2017-12-31T07:13:37.832Z,31.37
2017-12-31T07:16:06.144Z,33.80
2017-12-31T07:18:33.680Z,29.07
2017-12-31T07:21:01.245Z,24.63
2017-12-31T07:23:28.784Z,29.47
2017-12-31T07:25:57.092Z,34.47
2017-12-31T07:28:24.676Z,23.67
2017-12-31T07:30:52.219Z,26.70
2017-12-31T07:33:19.779Z,20.00
2017-12-31T07:35:47.321Z,25.67
2017-12-31T07:38:15.643Z,30.90
2017-12-31T07:40:43.177Z,28.70
2017-12-31T07:43:10.732Z,32.53
2017-12-31T07:45:38.273Z,33.30
2017-12-31T07:48:05.840Z,20.77
2017-12-31T07:50:34.152Z,17.43
2017-12-31T07:53:02.524Z,26.93
2017-12-31T07:55:30.077Z,36.23
2017-12-31T07:57:57.632Z,35.10
2017-12-31T08:00:25.944Z,27.47
2017-12-31T08:02:53.514Z,22.07
2017-12-31T08:05:21.816Z,34.10
2017-12-31T08:07:50.125Z,26.77
2017-12-31T08:10:18.447Z,19.13
2017-12-31T08:12:45.983Z,23.43
2017-12-31T08:15:13.541Z,34.97
2017-12-31T08:17:41.075Z,34.33
2017-12-31T08:20:08.638Z,29.53
2017-12-31T08:22:36.939Z,24.40
2017-12-31T08:25:04.517Z,20.40
2017-12-31T08:27:32.048Z,19.27
2017-12-31T08:29:59.610Z,33.43
2017-12-31T08:32:27.915Z,25.63
2017-12-31T08:34:55.471Z,21.13
2017-12-31T08:37:23.013Z,33.77
2017-12-31T08:39:50.584Z,19.00
2017-12-31T08:42:18.115Z,30.13
2017-12-31T08:44:45.707Z,29.13
2017-12-31T08:47:14.012Z,26.73
2017-12-31T08:49:42.336Z,26.43
2017-12-31T08:52:09.876Z,33.43
2017-12-31T08:54:37.435Z,20.10
2017-12-31T08:57:04.974Z,27.03
2017-12-31T08:59:33.275Z,25.43
2017-12-31T09:02:01.604Z,19.23
2017-12-31T09:04:29.907Z,25.60
2017-12-31T09:06:57.470Z,25.57
2017-12-31T09:09:25.804Z,18.80
2017-12-31T09:11:53.365Z,28.17
2017-12-31T09:14:20.904Z,22.47
2017-12-31T09:16:48.459Z,19.63
2017-12-31T09:19:16.007Z,25.17
2017-12-31T09:21:43.580Z,30.63
2017-12-31T09:24:11.892Z,25.17
2017-12-31T09:26:40.213Z,24.70
2017-12-31T09:29:08.519Z,27.20
2017-12-31T09:31:36.400Z,20.90
2017-12-31T09:34:03.940Z,22.23
2017-12-31T09:36:31.466Z,27.47
2017-12-31T09:38:59.028Z,21.57
2017-12-31T09:41:27.336Z,24.37
2017-12-31T09:43:55.656Z,31.53
2017-12-31T09:46:23.188Z,25.10
2017-12-31T09:48:50.768Z,29.70
2017-12-31T09:51:18.308Z,30.63
2017-12-31T09:53:45.859Z,31.77
2017-12-31T09:56:13.401Z,29.30
2017-12-31T09:58:40.992Z,30.63
2017-12-31T10:01:08.536Z,27.07
2017-12-31T10:03:36.093Z,28.47
2017-12-31T10:06:03.634Z,30.00
2017-12-31T10:08:31.191Z,32.40
2017-12-31T10:10:58.735Z,22.37
2017-12-31T10:13:26.289Z,37.43
2017-12-31T10:15:53.823Z,22.53
2017-12-31T10:18:22.144Z,27.40
2017-12-31T10:20:49.688Z,45.67
2017-12-31T10:23:17.244Z,28.47
2017-12-31T10:25:45.693Z,21.93
2017-12-31T10:28:15.527Z,20.90
2017-12-31T10:30:44.206Z,37.40
2017-12-31T10:33:11.748Z,30.37
2017-12-31T10:35:39.310Z,31.87
2017-12-31T10:38:07.625Z,18.80
2017-12-31T10:40:35.191Z,28.07
2017-12-31T10:43:03.501Z,37.70
2017-12-31T10:45:31.841Z,37.30
2017-12-31T10:47:59.401Z,31.30
2017-12-31T10:50:26.955Z,48.97
2017-12-31T10:52:54.499Z,39.43
2017-12-31T10:55:22.051Z,40.03
2017-12-31T10:57:49.598Z,35.50
2017-12-31T11:00:17.153Z,41.17
2017-12-31T11:02:44.740Z,45.03
2017-12-31T11:05:12.296Z,37.93
2017-12-31T11:07:39.832Z,42.07
2017-12-31T11:10:07.401Z,45.13
2017-12-31T11:12:34.963Z,30.90
2017-12-31T11:15:02.539Z,57.23
2017-12-31T11:17:30.092Z,30.57
2017-12-31T11:19:58.411Z,37.70
2017-12-31T11:22:25.953Z,27.27
2017-12-31T11:24:53.487Z,25.63
2017-12-31T11:27:21.044Z,34.70
2017-12-31T11:29:49.356Z,36.20
2017-12-31T11:32:17.677Z,36.77
2017-12-31T11:34:45.216Z,43.07
2017-12-31T11:37:12.778Z,39.37
2017-12-31T11:39:40.324Z,42.60
2017-12-31T11:42:07.898Z,32.07
2017-12-31T11:44:35.440Z,38.23
2017-12-31T11:47:03.004Z,24.80
2017-12-31T11:49:30.552Z,32.47
2017-12-31T11:51:58.117Z,34.77
2017-12-31T11:54:26.429Z,31.50
2017-12-31T11:56:54.765Z,32.57
2017-12-31T11:59:22.307Z,21.77
2017-12-31T12:01:50.684Z,22.27
2017-12-31T12:04:18.245Z,23.63
2017-12-31T12:06:45.912Z,18.90
2017-12-31T12:09:13.468Z,19.50
2017-12-31T12:11:41.830Z,16.37
2017-12-31T12:14:09.609Z,17.20
2017-12-31T12:16:37.154Z,12.53
2017-12-31T12:19:04.717Z,8.27
2017-12-31T12:21:33.716Z,10.37
2017-12-31T12:24:01.451Z,12.47
2017-12-31T12:26:29.749Z,11.17
2017-12-31T12:28:57.398Z,16.07
2017-12-31T12:31:25.050Z,14.97
2017-12-31T12:33:54.764Z,13.73
2017-12-31T12:36:23.645Z,9.40
2017-12-31T12:38:51.778Z,8.60
2017-12-31T12:41:20.252Z,8.83
2017-12-31T12:43:50.589Z,14.80
2017-12-31T12:46:18.520Z,12.03
2017-12-31T12:48:48.144Z,12.70
2017-12-31T12:51:15.846Z,11.57
2017-12-31T12:53:43.408Z,11.30
2017-12-31T12:56:11.720Z,8.60
2017-12-31T12:58:39.372Z,9.90
2017-12-31T13:01:07.046Z,9.80
2017-12-31T13:03:34.635Z,13.40
2017-12-31T13:06:02.195Z,9.97
2017-12-31T13:08:29.763Z,7.23
2017-12-31T13:10:57.380Z,13.40
2017-12-31T13:13:24.927Z,13.17
2017-12-31T13:15:52.484Z,9.00
2017-12-31T13:18:20.817Z,15.23
2017-12-31T13:20:48.392Z,20.20
2017-12-31T13:23:15.947Z,18.90
2017-12-31T13:25:43.521Z,25.33
2017-12-31T13:28:11.079Z,18.23
2017-12-31T13:30:38.625Z,16.40
2017-12-31T13:33:07.094Z,16.70
2017-12-31T13:35:34.656Z,19.33
2017-12-31T13:38:02.249Z,13.33
2017-12-31T13:40:31.354Z,21.00
2017-12-31T13:42:58.939Z,23.80
2017-12-31T13:45:27.280Z,15.97
2017-12-31T13:47:54.848Z,18.00
2017-12-31T13:50:22.395Z,11.37
2017-12-31T13:52:50.144Z,11.40
2017-12-31T13:55:17.735Z,14.30
2017-12-31T13:57:46.106Z,14.90
2017-12-31T14:00:13.663Z,8.87
2017-12-31T14:02:42.005Z,7.83
2017-12-31T14:05:09.561Z,8.67
2017-12-31T14:07:40.051Z,6.53
2017-12-31T14:10:07.740Z,7.37
2017-12-31T14:12:35.315Z,6.90
2017-12-31T14:15:02.885Z,6.77
2017-12-31T14:17:30.448Z,9.53
2017-12-31T14:19:58.058Z,12.50
2017-12-31T14:22:25.610Z,7.50
2017-12-31T14:24:53.171Z,8.23
2017-12-31T14:27:21.484Z,11.47
2017-12-31T14:29:49.052Z,7.33
2017-12-31T14:32:16.612Z,5.90
2017-12-31T14:34:44.193Z,8.63
2017-12-31T14:37:11.741Z,7.97
2017-12-31T14:39:39.387Z,10.53
2017-12-31T14:42:06.982Z,4.63
2017-12-31T14:44:34.608Z,6.83
2017-12-31T14:47:03.547Z,6.43
2017-12-31T14:49:31.179Z,5.53
2017-12-31T14:51:58.774Z,13.63
2017-12-31T14:54:27.094Z,5.63
2017-12-31T14:56:54.672Z,9.30
2017-12-31T14:59:22.262Z,10.10
2017-12-31T15:01:49.863Z,12.77
2017-12-31T15:04:17.420Z,12.03
2017-12-31T15:06:45.009Z,10.10
2017-12-31T15:09:12.584Z,7.93
2017-12-31T15:11:40.918Z,8.57
2017-12-31T15:14:08.520Z,12.93
2017-12-31T15:16:36.872Z,10.40
2017-12-31T15:19:08.864Z,15.33
2017-12-31T15:21:37.045Z,13.70
2017-12-31T15:24:04.818Z,10.83
2017-12-31T15:26:32.409Z,8.93
2017-12-31T15:29:07.294Z,14.07
2017-12-31T15:31:38.823Z,9.43
2017-12-31T15:34:07.499Z,13.57
2017-12-31T15:36:35.073Z,13.10
2017-12-31T15:39:02.702Z,8.93
2017-12-31T15:41:31.081Z,10.57
2017-12-31T15:43:58.647Z,7.00
2017-12-31T15:46:26.196Z,5.73
2017-12-31T15:48:53.779Z,11.37
2017-12-31T15:51:24.968Z,10.73
2017-12-31T15:53:53.024Z,5.97
2017-12-31T15:56:23.605Z,10.70
2017-12-31T15:58:52.741Z,7.23
2017-12-31T16:01:20.341Z,5.43
2017-12-31T16:03:49.049Z,4.50
2017-12-31T16:06:17.592Z,12.47
2017-12-31T16:08:47.361Z,9.73
2017-12-31T16:11:15.712Z,14.37
2017-12-31T16:13:43.270Z,11.73
2017-12-31T16:16:10.835Z,5.70
2017-12-31T16:18:40.242Z,12.97
2017-12-31T16:21:08.621Z,5.43
2017-12-31T16:23:36.172Z,7.83
2017-12-31T16:26:03.733Z,8.97
2017-12-31T16:28:34.016Z,10.07
2017-12-31T16:31:02.433Z,7.17
2017-12-31T16:33:34.427Z,8.43
2017-12-31T16:36:02.124Z,8.47
2017-12-31T16:38:31.421Z,8.20
2017-12-31T16:40:59.113Z,9.67
2017-12-31T16:43:26.693Z,13.80
2017-12-31T16:45:54.256Z,11.20
2017-12-31T16:48:21.813Z,17.00
2017-12-31T16:50:50.281Z,7.83
2017-12-31T16:53:18.596Z,4.23
2017-12-31T16:55:46.177Z,12.50
2017-12-31T16:58:13.735Z,11.00
2017-12-31T17:00:41.344Z,10.10
2017-12-31T17:03:13.895Z,8.63
2017-12-31T17:05:43.570Z,8.57
2017-12-31T17:08:12.395Z,6.23
2017-12-31T17:10:39.941Z,9.90
2017-12-31T17:13:09.753Z,9.77
2017-12-31T17:15:40.445Z,10.03
2017-12-31T17:18:10.459Z,4.43
2017-12-31T17:20:39.577Z,17.30
2017-12-31T17:23:09.878Z,17.80
2017-12-31T17:25:38.963Z,11.90
2017-12-31T17:28:08.828Z,14.20
2017-12-31T17:30:38.287Z,9.00
2017-12-31T17:33:05.955Z,8.30
2017-12-31T17:35:33.495Z,5.63
2017-12-31T17:38:01.826Z,5.83
2017-12-31T17:40:30.157Z,10.80
2017-12-31T17:42:58.516Z,6.53
2017-12-31T17:45:26.782Z,10.23
2017-12-31T17:47:54.359Z,9.40
2017-12-31T17:50:21.923Z,7.87
2017-12-31T17:52:52.738Z,9.90
2017-12-31T17:55:21.015Z,7.47
2017-12-31T17:57:48.603Z,9.60
2017-12-31T18:00:17.923Z,6.40
2017-12-31T18:02:46.716Z,6.70
2017-12-31T18:05:17.113Z,5.50
2017-12-31T18:07:48.010Z,3.20
2017-12-31T18:10:17.027Z,6.73
2017-12-31T18:12:45.511Z,14.60
2017-12-31T18:15:13.194Z,10.50
2017-12-31T18:17:40.876Z,7.67
2017-12-31T18:20:08.557Z,9.50
2017-12-31T18:22:36.108Z,6.40
2017-12-31T18:25:03.676Z,4.73
2017-12-31T18:27:31.236Z,6.13
2017-12-31T18:29:58.812Z,11.37
2017-12-31T18:32:26.367Z,8.47
2017-12-31T18:34:54.672Z,6.00
2017-12-31T18:37:22.996Z,9.23
2017-12-31T18:39:50.547Z,3.87
2017-12-31T18:42:18.896Z,11.60
2017-12-31T18:44:47.144Z,3.57
2017-12-31T18:47:17.358Z,4.33
2017-12-31T18:49:46.776Z,12.50
2017-12-31T18:52:14.575Z,4.87
2017-12-31T18:54:44.910Z,7.37
2017-12-31T18:57:12.535Z,5.07
2017-12-31T18:59:40.143Z,2.30
2017-12-31T19:02:08.559Z,6.73
2017-12-31T19:04:36.131Z,8.43
2017-12-31T19:07:03.716Z,9.67
2017-12-31T19:09:32.023Z,3.03
2017-12-31T19:12:00.328Z,6.10
2017-12-31T19:14:27.888Z,6.83
2017-12-31T19:16:55.432Z,5.70
2017-12-31T19:19:22.983Z,4.27
2017-12-31T19:21:51.313Z,4.67
2017-12-31T19:24:18.889Z,2.33
2017-12-31T19:26:46.442Z,5.17
2017-12-31T19:29:14.768Z,6.70
2017-12-31T19:31:42.334Z,4.97
2017-12-31T19:34:10.656Z,3.90
2017-12-31T19:36:38.195Z,13.73
2017-12-31T19:39:05.754Z,5.63
2017-12-31T19:41:33.292Z,7.37
2017-12-31T19:44:00.865Z,6.50
2017-12-31T19:46:29.167Z,5.37
2017-12-31T19:48:58.468Z,8.87
2017-12-31T19:51:26.023Z,6.00
2017-12-31T19:53:53.564Z,5.83
2017-12-31T19:56:21.901Z,7.07
2017-12-31T19:58:49.443Z,5.00
2017-12-31T20:01:17.763Z,5.30
2017-12-31T20:03:45.309Z,10.93
2017-12-31T20:06:12.863Z,7.37
2017-12-31T20:08:40.406Z,8.67
2017-12-31T20:11:08.729Z,5.47
2017-12-31T20:13:36.275Z,8.70
2017-12-31T20:16:04.599Z,6.13
2017-12-31T20:18:32.136Z,8.87
2017-12-31T20:20:59.687Z,8.43
2017-12-31T20:23:27.228Z,16.20
2017-12-31T20:25:55.539Z,9.50
2017-12-31T20:28:23.864Z,9.87
2017-12-31T20:30:51.413Z,10.63
2017-12-31T20:33:18.972Z,8.50
2017-12-31T20:35:46.515Z,9.63
2017-12-31T20:38:14.079Z,12.93
2017-12-31T20:40:42.384Z,14.53
2017-12-31T20:43:10.704Z,13.57
2017-12-31T20:45:38.240Z,8.10
2017-12-31T20:48:05.796Z,8.33
2017-12-31T20:50:33.341Z,12.43
2017-12-31T20:53:00.925Z,12.23
2017-12-31T20:55:28.464Z,7.83
2017-12-31T20:57:56.024Z,9.30
2017-12-31T21:00:23.565Z,8.60
2017-12-31T21:02:51.920Z,9.33
2017-12-31T21:05:19.464Z,8.13
2017-12-31T21:07:47.007Z,7.90
2017-12-31T21:10:14.593Z,8.70
2017-12-31T21:12:42.136Z,11.23
2017-12-31T21:15:09.693Z,11.57
2017-12-31T21:17:37.993Z,9.17
2017-12-31T21:20:06.321Z,13.27
2017-12-31T21:22:33.859Z,9.73
2017-12-31T21:25:02.222Z,6.03
2017-12-31T21:27:29.764Z,12.57
2017-12-31T21:29:58.089Z,9.83
2017-12-31T21:32:25.645Z,11.03
2017-12-31T21:34:53.976Z,10.77
2017-12-31T21:37:22.317Z,7.07
2017-12-31T21:39:49.909Z,11.60
2017-12-31T21:42:17.477Z,6.70
2017-12-31T21:44:45.045Z,14.23
2017-12-31T21:47:12.654Z,7.47
2017-12-31T21:49:40.236Z,10.53
2017-12-31T21:52:08.610Z,8.47
2017-12-31T21:54:36.191Z,10.67
2017-12-31T21:57:03.756Z,6.80
2017-12-31T21:59:31.300Z,6.00
2017-12-31T22:01:58.867Z,8.83
2017-12-31T22:04:26.423Z,9.97
2017-12-31T22:06:53.992Z,7.73
2017-12-31T22:09:22.301Z,8.40
2017-12-31T22:11:49.927Z,6.60
2017-12-31T22:14:17.496Z,7.70
2017-12-31T22:16:46.310Z,6.83
2017-12-31T22:19:13.860Z,6.27
2017-12-31T22:21:41.481Z,7.40
2017-12-31T22:24:09.074Z,5.57
2017-12-31T22:26:37.384Z,5.83
2017-12-31T22:29:04.948Z,9.50
2017-12-31T22:31:32.493Z,6.07
2017-12-31T22:34:00.977Z,5.93
2017-12-31T22:36:29.318Z,5.93
2017-12-31T22:38:56.885Z,7.60
2017-12-31T22:41:25.192Z,7.00
2017-12-31T22:43:53.516Z,6.47
2017-12-31T22:46:21.116Z,5.17
2017-12-31T22:48:48.686Z,6.63
2017-12-31T22:51:16.246Z,6.70
2017-12-31T22:53:43.822Z,5.00
2017-12-31T22:56:12.137Z,5.43
2017-12-31T22:58:39.704Z,6.13
2017-12-31T23:01:08.018Z,7.33
2017-12-31T23:03:35.580Z,11.87
2017-12-31T23:06:04.259Z,4.43
2017-12-31T23:08:32.140Z,17.03
2017-12-31T23:10:59.712Z,28.07
2017-12-31T23:13:27.313Z,13.10
2017-12-31T23:15:54.880Z,10.70
2017-12-31T23:18:22.426Z,7.67
2017-12-31T23:20:49.996Z,9.47
2017-12-31T23:23:17.549Z,11.80
2017-12-31T23:25:45.161Z,4.70
2017-12-31T23:28:13.560Z,9.00
2017-12-31T23:30:41.776Z,6.93
2017-12-31T23:33:09.330Z,8.33
2017-12-31T23:35:36.946Z,11.97
2017-12-31T23:38:04.497Z,5.97
2017-12-31T23:40:32.073Z,5.47
2017-12-31T23:42:59.648Z,11.97
2017-12-31T23:45:27.196Z,7.60
2017-12-31T23:47:54.765Z,12.53
2017-12-31T23:50:22.309Z,9.40
2017-12-31T23:52:49.873Z,7.37
2017-12-31T23:55:17.431Z,6.33
2017-12-31T23:57:45.756Z,7.60
